sensor_id;sensor_type;location;lat;lon;timestamp;P1;durP1;ratioP1;P2;durP2;ratioP2
62610;SDS011;48683;48.084;17.272;2023-05-14T00:00:47;12.23;;;10.68;;
62610;SDS011;48683;48.084;17.272;2023-05-14T00:03:13;14.25;;;11.20;;
62610;SDS011;48683;48.084;17.272;2023-05-14T00:05:38;11.25;;;10.00;;
62610;SDS011;48683;48.084;17.272;2023-05-14T00:08:04;11.48;;;10.27;;
62610;SDS011;48683;48.084;17.272;2023-05-14T00:10:30;12.10;;;10.32;;
62610;SDS011;48683;48.084;17.272;2023-05-14T00:12:55;11.88;;;10.48;;
62610;SDS011;48683;48.084;17.272;2023-05-14T00:15:20;13.23;;;10.75;;
62610;SDS011;48683;48.084;17.272;2023-05-14T00:17:46;11.38;;;10.27;;
62610;SDS011;48683;48.084;17.272;2023-05-14T00:20:11;12.60;;;10.63;;
62610;SDS011;48683;48.084;17.272;2023-05-14T00:22:37;12.75;;;10.38;;
62610;SDS011;48683;48.084;17.272;2023-05-14T00:25:03;13.30;;;10.65;;
62610;SDS011;48683;48.084;17.272;2023-05-14T00:29:55;14.07;;;11.03;;
62610;SDS011;48683;48.084;17.272;2023-05-14T00:32:21;15.35;;;11.48;;
62610;SDS011;48683;48.084;17.272;2023-05-14T00:34:47;16.70;;;12.30;;
62610;SDS011;48683;48.084;17.272;2023-05-14T00:37:33;15.43;;;13.77;;
62610;SDS011;48683;48.084;17.272;2023-05-14T00:39:58;16.17;;;14.27;;
62610;SDS011;48683;48.084;17.272;2023-05-14T00:42:24;15.68;;;13.45;;
62610;SDS011;48683;48.084;17.272;2023-05-14T00:44:50;18.77;;;14.77;;
62610;SDS011;48683;48.084;17.272;2023-05-14T00:47:16;17.00;;;15.20;;
62610;SDS011;48683;48.084;17.272;2023-05-14T00:49:41;20.77;;;18.60;;
62610;SDS011;48683;48.084;17.272;2023-05-14T00:52:07;23.80;;;18.83;;
62610;SDS011;48683;48.084;17.272;2023-05-14T00:54:32;18.83;;;16.85;;
62610;SDS011;48683;48.084;17.272;2023-05-14T00:56:58;19.67;;;16.77;;
62610;SDS011;48683;48.084;17.272;2023-05-14T00:59:24;19.60;;;16.30;;
62610;SDS011;48683;48.084;17.272;2023-05-14T01:01:50;18.52;;;14.85;;
62610;SDS011;48683;48.084;17.272;2023-05-14T01:04:15;16.05;;;13.68;;
62610;SDS011;48683;48.084;17.272;2023-05-14T01:09:31;16.13;;;13.70;;
62610;SDS011;48683;48.084;17.272;2023-05-14T01:12:02;19.60;;;15.48;;
62610;SDS011;48683;48.084;17.272;2023-05-14T01:14:33;18.60;;;16.60;;
62610;SDS011;48683;48.084;17.272;2023-05-14T01:17:06;16.88;;;15.15;;
62610;SDS011;48683;48.084;17.272;2023-05-14T01:19:42;18.63;;;16.20;;
62610;SDS011;48683;48.084;17.272;2023-05-14T01:22:09;16.88;;;15.07;;
62610;SDS011;48683;48.084;17.272;2023-05-14T01:24:34;17.27;;;15.38;;
62610;SDS011;48683;48.084;17.272;2023-05-14T01:27:02;17.17;;;15.38;;
62610;SDS011;48683;48.084;17.272;2023-05-14T01:29:33;18.02;;;14.00;;
62610;SDS011;48683;48.084;17.272;2023-05-14T01:32:02;18.17;;;14.60;;
62610;SDS011;48683;48.084;17.272;2023-05-14T01:34:31;15.00;;;12.38;;
62610;SDS011;48683;48.084;17.272;2023-05-14T01:36:59;14.10;;;11.85;;
62610;SDS011;48683;48.084;17.272;2023-05-14T01:39:24;12.80;;;11.45;;
62610;SDS011;48683;48.084;17.272;2023-05-14T01:41:51;10.13;;;9.00;;
62610;SDS011;48683;48.084;17.272;2023-05-14T01:46:43;9.57;;;8.43;;
62610;SDS011;48683;48.084;17.272;2023-05-14T01:49:08;10.25;;;8.38;;
62610;SDS011;48683;48.084;17.272;2023-05-14T01:51:34;10.40;;;8.43;;
62610;SDS011;48683;48.084;17.272;2023-05-14T01:53:59;9.13;;;8.18;;
62610;SDS011;48683;48.084;17.272;2023-05-14T01:56:25;9.55;;;8.40;;
62610;SDS011;48683;48.084;17.272;2023-05-14T01:58:51;9.63;;;8.27;;
62610;SDS011;48683;48.084;17.272;2023-05-14T02:01:16;8.27;;;7.47;;
62610;SDS011;48683;48.084;17.272;2023-05-14T02:03:41;10.00;;;8.05;;
62610;SDS011;48683;48.084;17.272;2023-05-14T02:06:07;8.15;;;7.28;;
62610;SDS011;48683;48.084;17.272;2023-05-14T02:08:32;10.10;;;7.82;;
62610;SDS011;48683;48.084;17.272;2023-05-14T02:10:57;9.25;;;7.40;;
62610;SDS011;48683;48.084;17.272;2023-05-14T02:13:23;8.40;;;7.60;;
62610;SDS011;48683;48.084;17.272;2023-05-14T02:15:50;9.65;;;7.32;;
62610;SDS011;48683;48.084;17.272;2023-05-14T02:18:15;8.40;;;7.50;;
62610;SDS011;48683;48.084;17.272;2023-05-14T02:20:41;8.73;;;7.75;;
62610;SDS011;48683;48.084;17.272;2023-05-14T02:23:06;10.57;;;6.78;;
62610;SDS011;48683;48.084;17.272;2023-05-14T02:25:31;8.15;;;7.35;;
62610;SDS011;48683;48.084;17.272;2023-05-14T02:27:57;12.43;;;7.38;;
62610;SDS011;48683;48.084;17.272;2023-05-14T02:30:22;8.30;;;7.15;;
62610;SDS011;48683;48.084;17.272;2023-05-14T02:32:47;8.10;;;7.28;;
62610;SDS011;48683;48.084;17.272;2023-05-14T02:35:13;8.23;;;7.38;;
62610;SDS011;48683;48.084;17.272;2023-05-14T02:37:38;8.90;;;7.60;;
62610;SDS011;48683;48.084;17.272;2023-05-14T02:40:03;9.23;;;7.95;;
62610;SDS011;48683;48.084;17.272;2023-05-14T02:42:30;8.32;;;7.45;;
62610;SDS011;48683;48.084;17.272;2023-05-14T02:44:55;8.00;;;7.15;;
62610;SDS011;48683;48.084;17.272;2023-05-14T02:47:20;8.23;;;6.60;;
62610;SDS011;48683;48.084;17.272;2023-05-14T02:49:46;7.47;;;6.72;;
62610;SDS011;48683;48.084;17.272;2023-05-14T02:52:11;8.65;;;6.65;;
62610;SDS011;48683;48.084;17.272;2023-05-14T02:54:37;7.22;;;6.53;;
62610;SDS011;48683;48.084;17.272;2023-05-14T02:57:02;8.10;;;6.65;;
62610;SDS011;48683;48.084;17.272;2023-05-14T02:59:28;7.82;;;7.00;;
62610;SDS011;48683;48.084;17.272;2023-05-14T03:01:54;8.00;;;6.97;;
62610;SDS011;48683;48.084;17.272;2023-05-14T03:04:19;8.40;;;7.57;;
62610;SDS011;48683;48.084;17.272;2023-05-14T03:06:44;8.60;;;7.60;;
62610;SDS011;48683;48.084;17.272;2023-05-14T03:09:10;9.68;;;7.55;;
62610;SDS011;48683;48.084;17.272;2023-05-14T03:11:35;9.75;;;7.60;;
62610;SDS011;48683;48.084;17.272;2023-05-14T03:14:00;7.13;;;6.22;;
62610;SDS011;48683;48.084;17.272;2023-05-14T03:16:26;10.65;;;6.68;;
62610;SDS011;48683;48.084;17.272;2023-05-14T03:18:51;7.95;;;6.45;;
62610;SDS011;48683;48.084;17.272;2023-05-14T03:21:17;6.88;;;6.22;;
62610;SDS011;48683;48.084;17.272;2023-05-14T03:23:42;8.35;;;5.90;;
62610;SDS011;48683;48.084;17.272;2023-05-14T03:26:07;9.82;;;6.53;;
62610;SDS011;48683;48.084;17.272;2023-05-14T03:28:33;7.60;;;5.50;;
62610;SDS011;48683;48.084;17.272;2023-05-14T03:30:58;6.53;;;5.90;;
62610;SDS011;48683;48.084;17.272;2023-05-14T03:33:24;9.18;;;6.72;;
62610;SDS011;48683;48.084;17.272;2023-05-14T03:35:49;7.03;;;6.28;;
62610;SDS011;48683;48.084;17.272;2023-05-14T03:38:15;6.97;;;6.28;;
62610;SDS011;48683;48.084;17.272;2023-05-14T03:40:40;8.55;;;6.65;;
62610;SDS011;48683;48.084;17.272;2023-05-14T03:43:06;6.85;;;6.15;;
62610;SDS011;48683;48.084;17.272;2023-05-14T03:45:31;9.45;;;6.50;;
62610;SDS011;48683;48.084;17.272;2023-05-14T03:47:57;10.70;;;6.35;;
62610;SDS011;48683;48.084;17.272;2023-05-14T03:50:22;7.20;;;6.50;;
62610;SDS011;48683;48.084;17.272;2023-05-14T03:52:49;8.07;;;6.72;;
62610;SDS011;48683;48.084;17.272;2023-05-14T03:55:19;8.25;;;7.00;;
62610;SDS011;48683;48.084;17.272;2023-05-14T03:57:44;7.55;;;6.72;;
62610;SDS011;48683;48.084;17.272;2023-05-14T04:00:10;7.63;;;6.90;;
62610;SDS011;48683;48.084;17.272;2023-05-14T04:02:36;7.55;;;6.85;;
62610;SDS011;48683;48.084;17.272;2023-05-14T04:05:01;9.43;;;7.30;;
62610;SDS011;48683;48.084;17.272;2023-05-14T04:07:26;8.75;;;7.40;;
62610;SDS011;48683;48.084;17.272;2023-05-14T04:09:52;9.40;;;8.27;;
62610;SDS011;48683;48.084;17.272;2023-05-14T04:12:17;9.05;;;8.07;;
62610;SDS011;48683;48.084;17.272;2023-05-14T04:14:42;10.02;;;9.00;;
62610;SDS011;48683;48.084;17.272;2023-05-14T04:17:08;13.60;;;9.68;;
62610;SDS011;48683;48.084;17.272;2023-05-14T04:19:33;12.13;;;10.07;;
62610;SDS011;48683;48.084;17.272;2023-05-14T04:21:58;12.88;;;10.32;;
62610;SDS011;48683;48.084;17.272;2023-05-14T04:24:24;13.48;;;11.07;;
62610;SDS011;48683;48.084;17.272;2023-05-14T04:26:49;11.98;;;9.90;;
62610;SDS011;48683;48.084;17.272;2023-05-14T04:29:14;9.30;;;8.35;;
62610;SDS011;48683;48.084;17.272;2023-05-14T04:31:40;11.82;;;8.75;;
62610;SDS011;48683;48.084;17.272;2023-05-14T04:34:07;9.85;;;8.80;;
62610;SDS011;48683;48.084;17.272;2023-05-14T04:36:32;9.55;;;8.25;;
62610;SDS011;48683;48.084;17.272;2023-05-14T04:38:57;8.60;;;7.80;;
62610;SDS011;48683;48.084;17.272;2023-05-14T04:41:23;10.82;;;7.95;;
62610;SDS011;48683;48.084;17.272;2023-05-14T04:43:48;9.15;;;8.07;;
62610;SDS011;48683;48.084;17.272;2023-05-14T04:46:14;11.13;;;8.48;;
62610;SDS011;48683;48.084;17.272;2023-05-14T04:48:40;10.80;;;8.02;;
62610;SDS011;48683;48.084;17.272;2023-05-14T04:51:06;9.05;;;7.70;;
62610;SDS011;48683;48.084;17.272;2023-05-14T04:53:31;10.02;;;8.27;;
62610;SDS011;48683;48.084;17.272;2023-05-14T04:55:57;8.50;;;7.60;;
62610;SDS011;48683;48.084;17.272;2023-05-14T04:58:22;10.70;;;8.02;;
62610;SDS011;48683;48.084;17.272;2023-05-14T05:00:48;9.70;;;7.70;;
62610;SDS011;48683;48.084;17.272;2023-05-14T05:03:14;9.88;;;8.45;;
62610;SDS011;48683;48.084;17.272;2023-05-14T05:05:39;8.10;;;7.35;;
62610;SDS011;48683;48.084;17.272;2023-05-14T05:08:05;10.73;;;8.10;;
62610;SDS011;48683;48.084;17.272;2023-05-14T05:10:30;11.38;;;8.98;;
62610;SDS011;48683;48.084;17.272;2023-05-14T05:12:55;10.48;;;8.75;;
62610;SDS011;48683;48.084;17.272;2023-05-14T05:15:21;11.68;;;8.52;;
62610;SDS011;48683;48.084;17.272;2023-05-14T05:17:46;9.43;;;8.43;;
62610;SDS011;48683;48.084;17.272;2023-05-14T05:20:12;10.90;;;8.73;;
62610;SDS011;48683;48.084;17.272;2023-05-14T05:22:37;9.88;;;7.70;;
62610;SDS011;48683;48.084;17.272;2023-05-14T05:25:03;9.45;;;8.50;;
62610;SDS011;48683;48.084;17.272;2023-05-14T05:27:32;10.07;;;8.90;;
62610;SDS011;48683;48.084;17.272;2023-05-14T05:30:00;11.30;;;9.10;;
62610;SDS011;48683;48.084;17.272;2023-05-14T05:32:25;11.45;;;9.20;;
62610;SDS011;48683;48.084;17.272;2023-05-14T05:34:51;8.85;;;7.95;;
62610;SDS011;48683;48.084;17.272;2023-05-14T05:37:16;8.68;;;7.78;;
62610;SDS011;48683;48.084;17.272;2023-05-14T05:39:42;9.43;;;8.05;;
62610;SDS011;48683;48.084;17.272;2023-05-14T05:42:07;9.80;;;8.02;;
62610;SDS011;48683;48.084;17.272;2023-05-14T05:44:33;8.88;;;7.80;;
62610;SDS011;48683;48.084;17.272;2023-05-14T05:46:58;9.35;;;8.45;;
62610;SDS011;48683;48.084;17.272;2023-05-14T05:49:23;8.88;;;7.97;;
62610;SDS011;48683;48.084;17.272;2023-05-14T05:51:49;7.97;;;7.18;;
62610;SDS011;48683;48.084;17.272;2023-05-14T05:54:14;8.27;;;7.47;;
62610;SDS011;48683;48.084;17.272;2023-05-14T05:56:39;9.18;;;7.05;;
62610;SDS011;48683;48.084;17.272;2023-05-14T05:59:05;8.70;;;7.80;;
62610;SDS011;48683;48.084;17.272;2023-05-14T06:01:30;7.60;;;6.88;;
62610;SDS011;48683;48.084;17.272;2023-05-14T06:03:56;9.52;;;8.40;;
62610;SDS011;48683;48.084;17.272;2023-05-14T06:06:21;10.85;;;8.40;;
62610;SDS011;48683;48.084;17.272;2023-05-14T06:08:46;8.82;;;7.90;;
62610;SDS011;48683;48.084;17.272;2023-05-14T06:11:12;9.52;;;7.38;;
62610;SDS011;48683;48.084;17.272;2023-05-14T06:13:37;10.48;;;8.25;;
62610;SDS011;48683;48.084;17.272;2023-05-14T06:16:02;11.40;;;8.05;;
62610;SDS011;48683;48.084;17.272;2023-05-14T06:18:28;9.25;;;7.38;;
62610;SDS011;48683;48.084;17.272;2023-05-14T06:20:53;9.65;;;8.10;;
62610;SDS011;48683;48.084;17.272;2023-05-14T06:23:20;8.43;;;7.53;;
62610;SDS011;48683;48.084;17.272;2023-05-14T06:25:46;9.80;;;7.82;;
62610;SDS011;48683;48.084;17.272;2023-05-14T06:28:13;9.23;;;8.27;;
62610;SDS011;48683;48.084;17.272;2023-05-14T06:30:38;9.02;;;8.13;;
62610;SDS011;48683;48.084;17.272;2023-05-14T06:33:03;8.55;;;7.75;;
62610;SDS011;48683;48.084;17.272;2023-05-14T06:35:29;9.43;;;8.43;;
62610;SDS011;48683;48.084;17.272;2023-05-14T06:37:54;9.05;;;7.97;;
62610;SDS011;48683;48.084;17.272;2023-05-14T06:40:20;9.95;;;7.70;;
62610;SDS011;48683;48.084;17.272;2023-05-14T06:42:45;9.07;;;8.18;;
62610;SDS011;48683;48.084;17.272;2023-05-14T06:45:10;8.90;;;7.90;;
62610;SDS011;48683;48.084;17.272;2023-05-14T06:47:36;11.68;;;8.75;;
62610;SDS011;48683;48.084;17.272;2023-05-14T06:50:01;9.25;;;7.90;;
62610;SDS011;48683;48.084;17.272;2023-05-14T06:52:26;9.38;;;8.02;;
62610;SDS011;48683;48.084;17.272;2023-05-14T06:54:52;10.25;;;8.18;;
62610;SDS011;48683;48.084;17.272;2023-05-14T06:57:17;8.52;;;7.72;;
62610;SDS011;48683;48.084;17.272;2023-05-14T06:59:42;9.77;;;8.77;;
62610;SDS011;48683;48.084;17.272;2023-05-14T07:02:08;9.73;;;8.15;;
62610;SDS011;48683;48.084;17.272;2023-05-14T07:04:33;11.18;;;9.02;;
62610;SDS011;48683;48.084;17.272;2023-05-14T07:06:58;9.40;;;8.50;;
62610;SDS011;48683;48.084;17.272;2023-05-14T07:09:24;9.70;;;8.30;;
62610;SDS011;48683;48.084;17.272;2023-05-14T07:11:49;11.63;;;9.55;;
62610;SDS011;48683;48.084;17.272;2023-05-14T07:14:14;11.43;;;9.05;;
62610;SDS011;48683;48.084;17.272;2023-05-14T07:16:40;11.27;;;8.77;;
62610;SDS011;48683;48.084;17.272;2023-05-14T07:19:06;10.70;;;9.13;;
62610;SDS011;48683;48.084;17.272;2023-05-14T07:21:32;9.95;;;8.82;;
62610;SDS011;48683;48.084;17.272;2023-05-14T07:23:57;9.95;;;8.65;;
62610;SDS011;48683;48.084;17.272;2023-05-14T07:26:22;11.05;;;9.50;;
62610;SDS011;48683;48.084;17.272;2023-05-14T07:28:48;14.15;;;9.32;;
62610;SDS011;48683;48.084;17.272;2023-05-14T07:31:13;11.13;;;9.50;;
62610;SDS011;48683;48.084;17.272;2023-05-14T07:33:39;13.50;;;9.27;;
62610;SDS011;48683;48.084;17.272;2023-05-14T07:36:04;11.70;;;10.27;;
62610;SDS011;48683;48.084;17.272;2023-05-14T07:38:30;11.50;;;10.30;;
62610;SDS011;48683;48.084;17.272;2023-05-14T07:40:55;12.18;;;9.85;;
62610;SDS011;48683;48.084;17.272;2023-05-14T07:43:21;12.65;;;10.70;;
62610;SDS011;48683;48.084;17.272;2023-05-14T07:45:46;12.23;;;10.60;;
62610;SDS011;48683;48.084;17.272;2023-05-14T07:48:12;10.77;;;9.48;;
62610;SDS011;48683;48.084;17.272;2023-05-14T07:50:37;11.60;;;10.48;;
62610;SDS011;48683;48.084;17.272;2023-05-14T07:53:02;11.55;;;10.25;;
62610;SDS011;48683;48.084;17.272;2023-05-14T07:55:28;11.80;;;10.60;;
62610;SDS011;48683;48.084;17.272;2023-05-14T07:57:53;11.20;;;10.00;;
62610;SDS011;48683;48.084;17.272;2023-05-14T08:00:18;11.18;;;9.40;;
62610;SDS011;48683;48.084;17.272;2023-05-14T08:02:44;11.95;;;10.20;;
62610;SDS011;48683;48.084;17.272;2023-05-14T08:05:12;12.00;;;10.45;;
62610;SDS011;48683;48.084;17.272;2023-05-14T08:07:37;11.15;;;9.85;;
62610;SDS011;48683;48.084;17.272;2023-05-14T08:10:03;13.10;;;10.93;;
62610;SDS011;48683;48.084;17.272;2023-05-14T08:12:28;12.10;;;10.85;;
62610;SDS011;48683;48.084;17.272;2023-05-14T08:14:54;12.35;;;10.43;;
62610;SDS011;48683;48.084;17.272;2023-05-14T08:17:20;12.30;;;10.02;;
62610;SDS011;48683;48.084;17.272;2023-05-14T08:19:45;16.05;;;10.98;;
62610;SDS011;48683;48.084;17.272;2023-05-14T08:22:10;13.93;;;11.15;;
62610;SDS011;48683;48.084;17.272;2023-05-14T08:24:36;12.82;;;11.30;;
62610;SDS011;48683;48.084;17.272;2023-05-14T08:27:01;11.30;;;9.70;;
62610;SDS011;48683;48.084;17.272;2023-05-14T08:29:27;13.63;;;11.18;;
62610;SDS011;48683;48.084;17.272;2023-05-14T08:31:52;10.70;;;9.48;;
62610;SDS011;48683;48.084;17.272;2023-05-14T08:34:18;12.48;;;10.93;;
62610;SDS011;48683;48.084;17.272;2023-05-14T08:36:43;12.13;;;10.90;;
62610;SDS011;48683;48.084;17.272;2023-05-14T08:39:08;11.80;;;10.55;;
62610;SDS011;48683;48.084;17.272;2023-05-14T08:41:34;16.48;;;10.27;;
62610;SDS011;48683;48.084;17.272;2023-05-14T08:44:08;12.13;;;10.70;;
62610;SDS011;48683;48.084;17.272;2023-05-14T08:46:58;10.98;;;9.88;;
62610;SDS011;48683;48.084;17.272;2023-05-14T08:49:40;11.30;;;8.57;;
62610;SDS011;48683;48.084;17.272;2023-05-14T08:52:10;11.07;;;9.85;;
62610;SDS011;48683;48.084;17.272;2023-05-14T08:54:36;12.40;;;9.93;;
62610;SDS011;48683;48.084;17.272;2023-05-14T08:57:04;12.02;;;9.13;;
62610;SDS011;48683;48.084;17.272;2023-05-14T08:59:32;10.73;;;9.27;;
62610;SDS011;48683;48.084;17.272;2023-05-14T09:01:57;10.60;;;8.70;;
62610;SDS011;48683;48.084;17.272;2023-05-14T09:04:25;10.05;;;9.00;;
62610;SDS011;48683;48.084;17.272;2023-05-14T09:06:52;11.82;;;9.27;;
62610;SDS011;48683;48.084;17.272;2023-05-14T09:09:18;10.43;;;9.33;;
62610;SDS011;48683;48.084;17.272;2023-05-14T09:11:47;10.18;;;9.02;;
62610;SDS011;48683;48.084;17.272;2023-05-14T09:14:16;11.90;;;9.98;;
62610;SDS011;48683;48.084;17.272;2023-05-14T09:16:45;10.20;;;9.00;;
62610;SDS011;48683;48.084;17.272;2023-05-14T09:19:13;11.38;;;8.70;;
62610;SDS011;48683;48.084;17.272;2023-05-14T09:21:39;10.80;;;8.85;;
62610;SDS011;48683;48.084;17.272;2023-05-14T09:24:05;9.45;;;8.45;;
62610;SDS011;48683;48.084;17.272;2023-05-14T09:26:32;11.73;;;9.60;;
62610;SDS011;48683;48.084;17.272;2023-05-14T09:31:25;13.50;;;10.07;;
62610;SDS011;48683;48.084;17.272;2023-05-14T09:33:55;10.90;;;9.80;;
62610;SDS011;48683;48.084;17.272;2023-05-14T09:36:20;13.27;;;8.13;;
62610;SDS011;48683;48.084;17.272;2023-05-14T09:38:46;10.50;;;8.95;;
62610;SDS011;48683;48.084;17.272;2023-05-14T09:41:11;10.60;;;9.50;;
62610;SDS011;48683;48.084;17.272;2023-05-14T09:43:36;10.52;;;9.48;;
62610;SDS011;48683;48.084;17.272;2023-05-14T09:46:02;10.50;;;9.00;;
62610;SDS011;48683;48.084;17.272;2023-05-14T09:48:27;9.68;;;8.65;;
62610;SDS011;48683;48.084;17.272;2023-05-14T09:50:53;12.38;;;9.20;;
62610;SDS011;48683;48.084;17.272;2023-05-14T09:53:18;11.65;;;10.35;;
62610;SDS011;48683;48.084;17.272;2023-05-14T09:55:44;12.32;;;9.52;;
62610;SDS011;48683;48.084;17.272;2023-05-14T09:58:10;10.68;;;9.57;;
62610;SDS011;48683;48.084;17.272;2023-05-14T10:00:37;10.60;;;9.52;;
62610;SDS011;48683;48.084;17.272;2023-05-14T10:03:03;10.57;;;9.48;;
62610;SDS011;48683;48.084;17.272;2023-05-14T10:05:32;10.40;;;9.30;;
62610;SDS011;48683;48.084;17.272;2023-05-14T10:08:02;11.57;;;8.40;;
62610;SDS011;48683;48.084;17.272;2023-05-14T10:10:32;11.25;;;9.80;;
62610;SDS011;48683;48.084;17.272;2023-05-14T10:13:03;9.77;;;8.73;;
62610;SDS011;48683;48.084;17.272;2023-05-14T10:15:42;12.23;;;10.10;;
62610;SDS011;48683;48.084;17.272;2023-05-14T10:18:15;10.00;;;8.50;;
62610;SDS011;48683;48.084;17.272;2023-05-14T10:20:42;9.25;;;8.18;;
62610;SDS011;48683;48.084;17.272;2023-05-14T10:23:10;9.70;;;8.70;;
62610;SDS011;48683;48.084;17.272;2023-05-14T10:25:36;9.18;;;8.25;;
62610;SDS011;48683;48.084;17.272;2023-05-14T10:28:03;11.80;;;9.55;;
62610;SDS011;48683;48.084;17.272;2023-05-14T10:30:29;11.38;;;9.23;;
62610;SDS011;48683;48.084;17.272;2023-05-14T10:33:06;9.50;;;8.37;;
62610;SDS011;48683;48.084;17.272;2023-05-14T10:38:22;11.40;;;8.98;;
62610;SDS011;48683;48.084;17.272;2023-05-14T10:40:52;9.80;;;8.80;;
62610;SDS011;48683;48.084;17.272;2023-05-14T10:43:21;8.68;;;7.78;;
62610;SDS011;48683;48.084;17.272;2023-05-14T10:45:50;9.05;;;8.10;;
62610;SDS011;48683;48.084;17.272;2023-05-14T10:48:16;9.73;;;7.85;;
62610;SDS011;48683;48.084;17.272;2023-05-14T10:50:41;14.70;;;9.18;;
62610;SDS011;48683;48.084;17.272;2023-05-14T10:53:09;10.50;;;8.35;;
62610;SDS011;48683;48.084;17.272;2023-05-14T10:55:37;9.30;;;7.57;;
62610;SDS011;48683;48.084;17.272;2023-05-14T10:58:02;9.52;;;8.35;;
62610;SDS011;48683;48.084;17.272;2023-05-14T11:00:28;10.32;;;8.90;;
62610;SDS011;48683;48.084;17.272;2023-05-14T11:02:54;10.65;;;7.95;;
62610;SDS011;48683;48.084;17.272;2023-05-14T11:05:20;12.10;;;8.15;;
62610;SDS011;48683;48.084;17.272;2023-05-14T11:07:47;10.38;;;8.25;;
62610;SDS011;48683;48.084;17.272;2023-05-14T11:10:13;9.38;;;8.23;;
62610;SDS011;48683;48.084;17.272;2023-05-14T11:15:10;8.88;;;7.75;;
62610;SDS011;48683;48.084;17.272;2023-05-14T11:17:36;8.70;;;7.80;;
62610;SDS011;48683;48.084;17.272;2023-05-14T11:20:04;8.93;;;8.02;;
62610;SDS011;48683;48.084;17.272;2023-05-14T11:22:30;9.63;;;8.32;;
62610;SDS011;48683;48.084;17.272;2023-05-14T11:24:56;9.38;;;8.38;;
62610;SDS011;48683;48.084;17.272;2023-05-14T11:27:22;11.77;;;9.15;;
62610;SDS011;48683;48.084;17.272;2023-05-14T11:29:48;10.75;;;8.90;;
62610;SDS011;48683;48.084;17.272;2023-05-14T11:32:14;10.45;;;9.00;;
62610;SDS011;48683;48.084;17.272;2023-05-14T11:34:41;11.80;;;9.48;;
62610;SDS011;48683;48.084;17.272;2023-05-14T11:37:09;11.25;;;9.00;;
62610;SDS011;48683;48.084;17.272;2023-05-14T11:39:36;9.82;;;8.82;;
62610;SDS011;48683;48.084;17.272;2023-05-14T11:42:09;13.52;;;10.68;;
62610;SDS011;48683;48.084;17.272;2023-05-14T11:44:40;10.93;;;9.50;;
62610;SDS011;48683;48.084;17.272;2023-05-14T11:47:08;11.95;;;10.75;;
62610;SDS011;48683;48.084;17.272;2023-05-14T11:49:35;12.23;;;10.93;;
62610;SDS011;48683;48.084;17.272;2023-05-14T11:52:02;12.68;;;10.65;;
62610;SDS011;48683;48.084;17.272;2023-05-14T11:56:54;11.37;;;9.20;;
62610;SDS011;48683;48.084;17.272;2023-05-14T11:59:20;11.40;;;10.10;;
62610;SDS011;48683;48.084;17.272;2023-05-14T12:01:48;11.25;;;10.15;;
62610;SDS011;48683;48.084;17.272;2023-05-14T12:04:13;10.55;;;9.55;;
62610;SDS011;48683;48.084;17.272;2023-05-14T12:06:39;10.88;;;9.88;;
62610;SDS011;48683;48.084;17.272;2023-05-14T12:09:04;9.95;;;8.95;;
62610;SDS011;48683;48.084;17.272;2023-05-14T12:11:30;10.73;;;9.67;;
62610;SDS011;48683;48.084;17.272;2023-05-14T12:13:57;10.98;;;9.88;;
62610;SDS011;48683;48.084;17.272;2023-05-14T12:16:28;12.88;;;9.25;;
62610;SDS011;48683;48.084;17.272;2023-05-14T12:18:57;10.80;;;9.80;;
62610;SDS011;48683;48.084;17.272;2023-05-14T12:21:25;11.07;;;9.90;;
62610;SDS011;48683;48.084;17.272;2023-05-14T12:23:55;12.65;;;9.20;;
62610;SDS011;48683;48.084;17.272;2023-05-14T12:26:24;10.50;;;9.27;;
62610;SDS011;48683;48.084;17.272;2023-05-14T12:28:55;10.45;;;9.25;;
62610;SDS011;48683;48.084;17.272;2023-05-14T12:31:29;14.07;;;10.30;;
62610;SDS011;48683;48.084;17.272;2023-05-14T12:33:55;11.13;;;9.82;;
62610;SDS011;48683;48.084;17.272;2023-05-14T12:36:21;11.63;;;10.20;;
62610;SDS011;48683;48.084;17.272;2023-05-14T12:38:46;11.45;;;10.20;;
62610;SDS011;48683;48.084;17.272;2023-05-14T12:41:11;11.15;;;9.93;;
62610;SDS011;48683;48.084;17.272;2023-05-14T12:43:37;10.95;;;9.80;;
62610;SDS011;48683;48.084;17.272;2023-05-14T12:46:06;11.48;;;10.38;;
62610;SDS011;48683;48.084;17.272;2023-05-14T12:48:32;10.20;;;8.80;;
62610;SDS011;48683;48.084;17.272;2023-05-14T12:50:57;11.13;;;9.43;;
62610;SDS011;48683;48.084;17.272;2023-05-14T12:53:22;12.15;;;10.10;;
62610;SDS011;48683;48.084;17.272;2023-05-14T12:55:48;10.15;;;9.05;;
62610;SDS011;48683;48.084;17.272;2023-05-14T12:58:13;11.10;;;9.57;;
62610;SDS011;48683;48.084;17.272;2023-05-14T13:00:38;10.10;;;8.98;;
62610;SDS011;48683;48.084;17.272;2023-05-14T13:03:04;10.45;;;8.68;;
62610;SDS011;48683;48.084;17.272;2023-05-14T13:05:29;10.30;;;9.25;;
62610;SDS011;48683;48.084;17.272;2023-05-14T13:07:57;10.75;;;9.65;;
62610;SDS011;48683;48.084;17.272;2023-05-14T13:10:24;9.50;;;8.50;;
62610;SDS011;48683;48.084;17.272;2023-05-14T13:12:49;10.95;;;8.95;;
62610;SDS011;48683;48.084;17.272;2023-05-14T13:15:16;10.40;;;8.73;;
62610;SDS011;48683;48.084;17.272;2023-05-14T13:17:42;12.70;;;8.85;;
62610;SDS011;48683;48.084;17.272;2023-05-14T13:20:07;10.90;;;9.82;;
62610;SDS011;48683;48.084;17.272;2023-05-14T13:22:33;10.75;;;9.60;;
62610;SDS011;48683;48.084;17.272;2023-05-14T13:24:58;10.80;;;9.00;;
62610;SDS011;48683;48.084;17.272;2023-05-14T13:27:24;11.48;;;9.73;;
62610;SDS011;48683;48.084;17.272;2023-05-14T13:29:49;12.30;;;9.90;;
62610;SDS011;48683;48.084;17.272;2023-05-14T13:32:15;12.35;;;10.43;;
62610;SDS011;48683;48.084;17.272;2023-05-14T13:34:40;10.43;;;9.38;;
62610;SDS011;48683;48.084;17.272;2023-05-14T13:37:07;13.27;;;9.98;;
62610;SDS011;48683;48.084;17.272;2023-05-14T13:39:33;10.63;;;9.07;;
62610;SDS011;48683;48.084;17.272;2023-05-14T13:41:58;10.80;;;9.57;;
62610;SDS011;48683;48.084;17.272;2023-05-14T13:44:25;10.63;;;9.03;;
62610;SDS011;48683;48.084;17.272;2023-05-14T13:46:50;10.13;;;8.88;;
62610;SDS011;48683;48.084;17.272;2023-05-14T13:49:16;11.15;;;9.63;;
62610;SDS011;48683;48.084;17.272;2023-05-14T13:51:42;10.07;;;8.88;;
62610;SDS011;48683;48.084;17.272;2023-05-14T13:54:08;13.82;;;10.05;;
62610;SDS011;48683;48.084;17.272;2023-05-14T13:56:33;11.32;;;9.85;;
62610;SDS011;48683;48.084;17.272;2023-05-14T13:58:59;12.50;;;11.20;;
62610;SDS011;48683;48.084;17.272;2023-05-14T14:01:24;12.13;;;10.13;;
62610;SDS011;48683;48.084;17.272;2023-05-14T14:03:49;11.48;;;10.10;;
62610;SDS011;48683;48.084;17.272;2023-05-14T14:06:15;14.35;;;11.50;;
62610;SDS011;48683;48.084;17.272;2023-05-14T14:08:40;11.60;;;10.40;;
62610;SDS011;48683;48.084;17.272;2023-05-14T14:11:06;11.32;;;10.23;;
62610;SDS011;48683;48.084;17.272;2023-05-14T14:13:31;13.25;;;11.85;;
62610;SDS011;48683;48.084;17.272;2023-05-14T14:15:57;13.27;;;10.90;;
62610;SDS011;48683;48.084;17.272;2023-05-14T14:18:22;13.63;;;11.38;;
62610;SDS011;48683;48.084;17.272;2023-05-14T14:20:47;12.93;;;11.05;;
62610;SDS011;48683;48.084;17.272;2023-05-14T14:23:13;13.05;;;10.70;;
62610;SDS011;48683;48.084;17.272;2023-05-14T14:25:38;11.25;;;10.15;;
62610;SDS011;48683;48.084;17.272;2023-05-14T14:28:04;11.55;;;10.35;;
62610;SDS011;48683;48.084;17.272;2023-05-14T14:30:29;12.85;;;10.68;;
62610;SDS011;48683;48.084;17.272;2023-05-14T14:32:54;14.55;;;10.85;;
62610;SDS011;48683;48.084;17.272;2023-05-14T14:35:20;12.90;;;10.27;;